This is the latest recevied weather packets stored in our database for station/object KD2RHT-13. If no packets are shown the sender has not sent any weather packets the latest 10 day(s).
| Time | Temp. | Humidity | Pressure | Rain* | Wind** | Luminosity | Snow |
|---|---|---|---|---|---|---|---|
| 1777689259 | 5° C | 99% | 1014.9 hPa | 0 mm | - | 0 W/m² | - |
| 1777688957 | 5° C | 99% | 1014.5 hPa | 1.27 mm | - | 0 W/m² | - |
| 1777688653 | 5° C | 99% | 1014.9 hPa | 0 mm | - | 0 W/m² | - |
| 1777688047 | 5° C | 99% | 1014.9 hPa | 1.78 mm | - | 0 W/m² | - |
| 1777687744 | 5° C | 99% | 1014.9 hPa | 1.78 mm | - | 0 W/m² | - |
| 1777673810 | 9.44° C | 65% | 1013.1 hPa | 0 mm | - | 32 W/m² | - |
| 1777673507 | 9.44° C | 63% | 1013.5 hPa | 0 mm | - | 47 W/m² | - |
| 1777673205 | 9.44° C | 64% | 1013.9 hPa | 0 mm | - | 54 W/m² | - |
| 1777672902 | 9.44° C | 62% | 1013.1 hPa | 0 mm | - | 50 W/m² | - |
| 1777672293 | 10° C | 63% | 1013.1 hPa | 0 mm | - | 88 W/m² | - |
| 1777671989 | 10° C | 64% | 1013.1 hPa | 0 mm | - | 94 W/m² | - |
| 1777671382 | 10° C | 62% | 1013.1 hPa | 0 mm | - | 125 W/m² | - |
| 1777671078 | 10° C | 63% | 1013.1 hPa | 0 mm | - | 129 W/m² | - |
| 1777670775 | 10° C | 62% | 1013.1 hPa | 0 mm | - | 109 W/m² | - |
| 1777670471 | 10.56° C | 65% | 1013.1 hPa | 0 mm | - | 125 W/m² | - |
| 1777670168 | 10.56° C | 66% | 1013.1 hPa | 0 mm | - | 115 W/m² | - |
| 1777669866 | 10.56° C | 63% | 1013.1 hPa | 0 mm | - | 92 W/m² | - |
| 1777669562 | 11.11° C | 60% | 1013.1 hPa | 0 mm | - | 85 W/m² | - |
| 1777668955 | 11.11° C | 60% | 1012.7 hPa | 0 mm | - | 71 W/m² | - |
| 1777668349 | 11.67° C | 60% | 1012.7 hPa | 0 mm | - | 73 W/m² | - |
| 1777667742 | 11.67° C | 58% | 1012.4 hPa | 0 mm | - | 92 W/m² | - |
| 1777667440 | 11.67° C | 61% | 1012.7 hPa | 0 mm | - | 104 W/m² | - |
| 1777667137 | 11.67° C | 58% | 1012.7 hPa | 0 mm | - | 104 W/m² | - |
| 1777666227 | 12.22° C | 54% | 1012.7 hPa | 0 mm | - | 98 W/m² | - |
| 1777665318 | 12.78° C | 53% | 1013.1 hPa | 0 mm | - | 225 W/m² | - |
* Rain latest hour (hover to see other rain measurements)
** Current wind speed in m/s (hover to see current wind gust speed)